sensor_id;sensor_type;location;lat;lon;timestamp;pressure;altitude;pressure_sealevel;temperature;humidity
64792;BME280;51226;47.504;19.074;2024-02-14T00:01:55;100690.38;;;8.10;51.34
64792;BME280;51226;47.504;19.074;2024-02-14T00:04:58;100698.00;;;8.07;51.57
64792;BME280;51226;47.504;19.074;2024-02-14T00:08:01;100694.63;;;8.08;51.45
64792;BME280;51226;47.504;19.074;2024-02-14T00:11:05;100690.09;;;8.04;51.72
64792;BME280;51226;47.504;19.074;2024-02-14T00:14:09;100692.78;;;8.05;51.55
64792;BME280;51226;47.504;19.074;2024-02-14T00:17:12;100698.00;;;8.07;51.46
64792;BME280;51226;47.504;19.074;2024-02-14T00:20:15;100701.09;;;8.00;51.87
64792;BME280;51226;47.504;19.074;2024-02-14T00:23:18;100698.69;;;8.03;51.63
64792;BME280;51226;47.504;19.074;2024-02-14T00:26:21;100708.72;;;7.96;51.63
64792;BME280;51226;47.504;19.074;2024-02-14T00:29:26;100716.31;;;7.92;51.77
64792;BME280;51226;47.504;19.074;2024-02-14T00:32:29;100713.62;;;7.90;51.65
64792;BME280;51226;47.504;19.074;2024-02-14T00:35:32;100719.88;;;7.94;51.40
64792;BME280;51226;47.504;19.074;2024-02-14T00:38:35;100714.16;;;7.85;51.71
64792;BME280;51226;47.504;19.074;2024-02-14T00:41:38;100710.03;;;7.88;51.63
64792;BME280;51226;47.504;19.074;2024-02-14T00:44:41;100720.50;;;7.90;51.60
64792;BME280;51226;47.504;19.074;2024-02-14T00:47:44;100724.53;;;7.85;51.60
64792;BME280;51226;47.504;19.074;2024-02-14T00:50:47;100719.44;;;7.86;51.62
64792;BME280;51226;47.504;19.074;2024-02-14T00:53:49;100724.22;;;7.78;51.89
64792;BME280;51226;47.504;19.074;2024-02-14T00:56:52;100729.56;;;7.82;51.46
64792;BME280;51226;47.504;19.074;2024-02-14T00:59:55;100726.75;;;7.77;51.65
64792;BME280;51226;47.504;19.074;2024-02-14T01:03:03;100737.84;;;7.74;51.73
64792;BME280;51226;47.504;19.074;2024-02-14T01:06:06;100735.06;;;7.71;51.69
64792;BME280;51226;47.504;19.074;2024-02-14T01:09:09;100737.50;;;7.68;52.00
64792;BME280;51226;47.504;19.074;2024-02-14T01:12:14;100726.66;;;7.75;51.57
64792;BME280;51226;47.504;19.074;2024-02-14T01:15:17;100732.37;;;7.70;51.74
64792;BME280;51226;47.504;19.074;2024-02-14T01:18:20;100733.03;;;7.66;51.73
64792;BME280;51226;47.504;19.074;2024-02-14T01:21:23;100731.28;;;7.81;51.24
64792;BME280;51226;47.504;19.074;2024-02-14T01:24:25;100734.12;;;7.86;51.22
64792;BME280;51226;47.504;19.074;2024-02-14T01:27:32;100734.03;;;7.84;51.08
64792;BME280;51226;47.504;19.074;2024-02-14T01:30:36;100734.84;;;7.83;50.99
64792;BME280;51226;47.504;19.074;2024-02-14T01:33:39;100734.53;;;7.77;51.24
64792;BME280;51226;47.504;19.074;2024-02-14T01:36:43;100730.34;;;7.64;51.62
64792;BME280;51226;47.504;19.074;2024-02-14T01:39:45;100733.38;;;7.72;51.48
64792;BME280;51226;47.504;19.074;2024-02-14T01:42:48;100726.81;;;7.78;51.28
64792;BME280;51226;47.504;19.074;2024-02-14T01:45:51;100727.53;;;7.76;51.31
64792;BME280;51226;47.504;19.074;2024-02-14T01:48:54;100731.41;;;7.68;51.80
64792;BME280;51226;47.504;19.074;2024-02-14T01:51:59;100729.78;;;7.70;51.70
64792;BME280;51226;47.504;19.074;2024-02-14T01:55:04;100727.31;;;7.56;51.98
64792;BME280;51226;47.504;19.074;2024-02-14T01:58:07;100727.97;;;7.52;52.19
64792;BME280;51226;47.504;19.074;2024-02-14T02:01:10;100733.69;;;7.47;52.04
64792;BME280;51226;47.504;19.074;2024-02-14T02:04:13;100732.56;;;7.41;52.10
64792;BME280;51226;47.504;19.074;2024-02-14T02:07:16;100736.28;;;7.47;51.77
64792;BME280;51226;47.504;19.074;2024-02-14T02:10:20;100735.97;;;7.40;51.83
64792;BME280;51226;47.504;19.074;2024-02-14T02:13:24;100747.25;;;7.41;51.43
64792;BME280;51226;47.504;19.074;2024-02-14T02:16:28;100748.94;;;7.40;51.35
64792;BME280;51226;47.504;19.074;2024-02-14T02:19:31;100753.22;;;7.40;51.08
64792;BME280;51226;47.504;19.074;2024-02-14T02:22:35;100749.28;;;7.47;50.76
64792;BME280;51226;47.504;19.074;2024-02-14T02:25:38;100749.91;;;7.42;50.98
64792;BME280;51226;47.504;19.074;2024-02-14T02:28:41;100752.97;;;7.50;50.52
64792;BME280;51226;47.504;19.074;2024-02-14T02:31:45;100748.13;;;7.41;50.59
64792;BME280;51226;47.504;19.074;2024-02-14T02:34:48;100752.16;;;7.36;50.83
64792;BME280;51226;47.504;19.074;2024-02-14T02:37:51;100753.41;;;7.43;50.45
64792;BME280;51226;47.504;19.074;2024-02-14T02:40:54;100741.69;;;7.35;50.70
64792;BME280;51226;47.504;19.074;2024-02-14T02:43:56;100745.13;;;7.34;50.46
64792;BME280;51226;47.504;19.074;2024-02-14T02:46:59;100753.41;;;7.28;50.63
64792;BME280;51226;47.504;19.074;2024-02-14T02:50:03;100760.41;;;7.29;50.53
64792;BME280;51226;47.504;19.074;2024-02-14T02:53:06;100770.19;;;7.18;51.00
64792;BME280;51226;47.504;19.074;2024-02-14T02:56:09;100774.28;;;7.15;51.00
64792;BME280;51226;47.504;19.074;2024-02-14T02:59:12;100774.91;;;7.11;51.01
64792;BME280;51226;47.504;19.074;2024-02-14T03:02:15;100780.00;;;7.09;51.16
64792;BME280;51226;47.504;19.074;2024-02-14T03:05:18;100777.88;;;7.17;50.76
64792;BME280;51226;47.504;19.074;2024-02-14T03:08:22;100785.75;;;7.18;50.75
64792;BME280;51226;47.504;19.074;2024-02-14T03:11:28;100788.25;;;7.17;50.64
64792;BME280;51226;47.504;19.074;2024-02-14T03:14:31;100794.13;;;7.14;50.69
64792;BME280;51226;47.504;19.074;2024-02-14T03:17:39;100796.37;;;7.08;50.90
64792;BME280;51226;47.504;19.074;2024-02-14T03:20:41;100800.47;;;7.04;51.08
64792;BME280;51226;47.504;19.074;2024-02-14T03:23:44;100807.28;;;7.02;51.20
64792;BME280;51226;47.504;19.074;2024-02-14T03:26:48;100799.22;;;6.98;51.24
64792;BME280;51226;47.504;19.074;2024-02-14T03:29:54;100798.44;;;6.99;51.30
64792;BME280;51226;47.504;19.074;2024-02-14T03:32:57;100811.94;;;7.08;51.07
64792;BME280;51226;47.504;19.074;2024-02-14T03:36:00;100807.28;;;7.02;51.28
64792;BME280;51226;47.504;19.074;2024-02-14T03:39:03;100815.75;;;7.00;51.37
64792;BME280;51226;47.504;19.074;2024-02-14T03:42:07;100820.41;;;6.91;51.59
64792;BME280;51226;47.504;19.074;2024-02-14T03:45:10;100822.81;;;6.87;51.74
64792;BME280;51226;47.504;19.074;2024-02-14T03:48:13;100835.25;;;6.78;52.14
64792;BME280;51226;47.504;19.074;2024-02-14T03:51:16;100838.69;;;6.64;52.98
64792;BME280;51226;47.504;19.074;2024-02-14T03:54:20;100843.69;;;6.61;53.35
64792;BME280;51226;47.504;19.074;2024-02-14T03:57:23;100849.84;;;6.63;53.61
64792;BME280;51226;47.504;19.074;2024-02-14T04:00:28;100850.28;;;6.56;53.69
64792;BME280;51226;47.504;19.074;2024-02-14T04:03:32;100860.25;;;6.49;54.13
64792;BME280;51226;47.504;19.074;2024-02-14T04:06:34;100862.50;;;6.43;54.43
64792;BME280;51226;47.504;19.074;2024-02-14T04:09:37;100861.47;;;6.41;54.66
64792;BME280;51226;47.504;19.074;2024-02-14T04:12:40;100863.97;;;6.40;54.86
64792;BME280;51226;47.504;19.074;2024-02-14T04:15:43;100870.94;;;6.41;54.89
64792;BME280;51226;47.504;19.074;2024-02-14T04:18:45;100871.56;;;6.37;55.03
64792;BME280;51226;47.504;19.074;2024-02-14T04:21:48;100887.13;;;6.37;55.16
64792;BME280;51226;47.504;19.074;2024-02-14T04:24:51;100884.69;;;6.40;55.16
64792;BME280;51226;47.504;19.074;2024-02-14T04:27:54;100889.59;;;6.35;55.31
64792;BME280;51226;47.504;19.074;2024-02-14T04:30:56;100894.50;;;6.30;55.61
64792;BME280;51226;47.504;19.074;2024-02-14T04:34:00;100896.97;;;6.29;55.96
64792;BME280;51226;47.504;19.074;2024-02-14T04:37:03;100891.69;;;6.27;56.13
64792;BME280;51226;47.504;19.074;2024-02-14T04:40:12;100890.09;;;6.29;56.07
64792;BME280;51226;47.504;19.074;2024-02-14T04:43:15;100885.94;;;6.32;56.15
64792;BME280;51226;47.504;19.074;2024-02-14T04:46:19;100897.59;;;6.25;56.40
64792;BME280;51226;47.504;19.074;2024-02-14T04:49:25;100899.38;;;6.26;56.56
64792;BME280;51226;47.504;19.074;2024-02-14T04:52:28;100902.78;;;6.25;56.77
64792;BME280;51226;47.504;19.074;2024-02-14T04:55:31;100911.31;;;6.37;56.51
64792;BME280;51226;47.504;19.074;2024-02-14T04:58:34;100912.00;;;6.35;56.56
64792;BME280;51226;47.504;19.074;2024-02-14T05:01:38;100913.31;;;6.28;56.74
64792;BME280;51226;47.504;19.074;2024-02-14T05:04:44;100919.69;;;6.20;56.79
64792;BME280;51226;47.504;19.074;2024-02-14T05:07:46;100924.72;;;6.17;56.85
64792;BME280;51226;47.504;19.074;2024-02-14T05:10:49;100922.00;;;6.15;56.95
64792;BME280;51226;47.504;19.074;2024-02-14T05:13:52;100924.87;;;6.20;57.16
64792;BME280;51226;47.504;19.074;2024-02-14T05:16:55;100924.09;;;6.21;57.28
64792;BME280;51226;47.504;19.074;2024-02-14T05:19:58;100924.09;;;6.21;57.58
64792;BME280;51226;47.504;19.074;2024-02-14T05:23:01;100921.28;;;6.31;57.55
64792;BME280;51226;47.504;19.074;2024-02-14T05:26:03;100925.47;;;6.29;57.39
64792;BME280;51226;47.504;19.074;2024-02-14T05:29:06;100940.34;;;6.32;57.56
64792;BME280;51226;47.504;19.074;2024-02-14T05:32:09;100938.13;;;6.11;58.26
64792;BME280;51226;47.504;19.074;2024-02-14T05:35:14;100936.62;;;6.15;57.53
64792;BME280;51226;47.504;19.074;2024-02-14T05:38:17;100946.88;;;6.00;57.68
64792;BME280;51226;47.504;19.074;2024-02-14T05:41:21;100955.31;;;5.84;58.18
64792;BME280;51226;47.504;19.074;2024-02-14T05:44:26;100950.53;;;5.63;58.94
64792;BME280;51226;47.504;19.074;2024-02-14T05:47:30;100958.06;;;5.60;59.19
64792;BME280;51226;47.504;19.074;2024-02-14T05:50:33;100964.16;;;5.35;59.76
64792;BME280;51226;47.504;19.074;2024-02-14T05:53:36;100966.16;;;5.26;60.31
64792;BME280;51226;47.504;19.074;2024-02-14T05:56:38;100969.63;;;5.27;60.99
64792;BME280;51226;47.504;19.074;2024-02-14T05:59:41;100969.28;;;5.22;61.20
64792;BME280;51226;47.504;19.074;2024-02-14T06:02:44;100968.53;;;5.23;61.17
64792;BME280;51226;47.504;19.074;2024-02-14T06:05:47;100975.00;;;5.30;61.42
64792;BME280;51226;47.504;19.074;2024-02-14T06:08:50;100981.50;;;5.36;60.97
64792;BME280;51226;47.504;19.074;2024-02-14T06:11:53;100983.59;;;5.42;60.21
64792;BME280;51226;47.504;19.074;2024-02-14T06:14:56;100992.25;;;5.43;59.56
64792;BME280;51226;47.504;19.074;2024-02-14T06:17:59;100992.03;;;5.39;60.05
64792;BME280;51226;47.504;19.074;2024-02-14T06:21:01;101000.88;;;5.30;60.71
64792;BME280;51226;47.504;19.074;2024-02-14T06:24:04;100993.44;;;5.48;60.41
64792;BME280;51226;47.504;19.074;2024-02-14T06:27:07;100994.81;;;5.43;60.63
64792;BME280;51226;47.504;19.074;2024-02-14T06:30:10;100995.81;;;5.70;59.43
64792;BME280;51226;47.504;19.074;2024-02-14T06:33:13;100988.22;;;5.60;59.94
64792;BME280;51226;47.504;19.074;2024-02-14T06:36:16;100990.13;;;5.62;59.93
64792;BME280;51226;47.504;19.074;2024-02-14T06:39:19;100999.59;;;5.62;59.97
64792;BME280;51226;47.504;19.074;2024-02-14T06:42:23;100995.50;;;5.65;59.03
64792;BME280;51226;47.504;19.074;2024-02-14T06:45:26;101003.06;;;5.62;59.23
64792;BME280;51226;47.504;19.074;2024-02-14T06:48:30;101004.50;;;5.45;60.09
64792;BME280;51226;47.504;19.074;2024-02-14T06:51:33;101000.38;;;5.61;59.74
64792;BME280;51226;47.504;19.074;2024-02-14T06:54:36;101007.16;;;5.72;59.28
64792;BME280;51226;47.504;19.074;2024-02-14T06:57:39;101009.78;;;5.85;59.05
64792;BME280;51226;47.504;19.074;2024-02-14T07:00:41;101014.34;;;5.76;58.92
64792;BME280;51226;47.504;19.074;2024-02-14T07:03:44;101019.41;;;5.74;59.33
64792;BME280;51226;47.504;19.074;2024-02-14T07:06:49;101020.78;;;5.69;59.27
64792;BME280;51226;47.504;19.074;2024-02-14T07:09:52;101027.28;;;5.76;59.49
64792;BME280;51226;47.504;19.074;2024-02-14T07:12:57;101030.34;;;5.70;59.32
64792;BME280;51226;47.504;19.074;2024-02-14T07:16:00;101035.47;;;5.82;59.54
64792;BME280;51226;47.504;19.074;2024-02-14T07:19:02;101033.69;;;5.94;59.38
64792;BME280;51226;47.504;19.074;2024-02-14T07:22:06;101040.31;;;6.16;58.91
64792;BME280;51226;47.504;19.074;2024-02-14T07:25:08;101023.13;;;6.17;58.71
64792;BME280;51226;47.504;19.074;2024-02-14T07:31:34;101027.78;;;6.49;57.92
64792;BME280;51226;47.504;19.074;2024-02-14T07:34:40;101023.91;;;6.69;57.47
64792;BME280;51226;47.504;19.074;2024-02-14T07:37:43;101023.19;;;6.85;56.92
64792;BME280;51226;47.504;19.074;2024-02-14T07:40:46;101030.97;;;7.13;55.75
64792;BME280;51226;47.504;19.074;2024-02-14T07:43:48;101037.13;;;7.29;55.00
64792;BME280;51226;47.504;19.074;2024-02-14T07:46:51;101032.12;;;7.32;55.26
64792;BME280;51226;47.504;19.074;2024-02-14T07:49:54;101037.75;;;7.68;54.03
64792;BME280;51226;47.504;19.074;2024-02-14T07:52:57;101032.94;;;7.89;53.24
64792;BME280;51226;47.504;19.074;2024-02-14T07:56:00;101033.56;;;8.14;52.25
64792;BME280;51226;47.504;19.074;2024-02-14T07:59:03;101029.97;;;8.42;51.09
64792;BME280;51226;47.504;19.074;2024-02-14T08:02:07;101023.91;;;11.32;44.38
64792;BME280;51226;47.504;19.074;2024-02-14T08:05:10;101017.13;;;14.01;37.79
64792;BME280;51226;47.504;19.074;2024-02-14T08:08:13;101017.28;;;16.83;32.56
64792;BME280;51226;47.504;19.074;2024-02-14T08:11:16;101016.63;;;16.92;32.10
64792;BME280;51226;47.504;19.074;2024-02-14T08:14:18;101020.28;;;18.36;29.88
64792;BME280;51226;47.504;19.074;2024-02-14T08:17:21;101014.78;;;20.27;26.97
64792;BME280;51226;47.504;19.074;2024-02-14T08:20:24;101018.12;;;21.36;25.27
64792;BME280;51226;47.504;19.074;2024-02-14T08:23:27;101013.53;;;21.03;25.22
64792;BME280;51226;47.504;19.074;2024-02-14T08:26:30;101016.13;;;19.82;27.05
64792;BME280;51226;47.504;19.074;2024-02-14T08:29:34;101006.69;;;20.13;25.95
64792;BME280;51226;47.504;19.074;2024-02-14T08:32:37;101014.59;;;19.27;26.93
64792;BME280;51226;47.504;19.074;2024-02-14T08:35:40;101027.19;;;18.24;28.96
64792;BME280;51226;47.504;19.074;2024-02-14T08:38:45;101024.97;;;18.00;28.74
64792;BME280;51226;47.504;19.074;2024-02-14T08:41:48;101025.81;;;17.52;29.16
64792;BME280;51226;47.504;19.074;2024-02-14T08:44:50;101023.22;;;17.55;29.23
64792;BME280;51226;47.504;19.074;2024-02-14T08:47:53;101020.69;;;19.20;26.38
64792;BME280;51226;47.504;19.074;2024-02-14T08:50:56;101017.41;;;19.42;26.38
64792;BME280;51226;47.504;19.074;2024-02-14T08:53:59;101021.00;;;20.30;25.55
64792;BME280;51226;47.504;19.074;2024-02-14T08:57:02;101014.09;;;19.59;26.08
64792;BME280;51226;47.504;19.074;2024-02-14T09:00:06;101014.72;;;19.36;26.72
64792;BME280;51226;47.504;19.074;2024-02-14T09:03:09;101013.88;;;20.23;25.35
64792;BME280;51226;47.504;19.074;2024-02-14T09:06:14;101010.31;;;21.93;24.06
64792;BME280;51226;47.504;19.074;2024-02-14T09:09:17;101009.03;;;24.88;20.15
64792;BME280;51226;47.504;19.074;2024-02-14T09:12:22;100998.69;;;28.54;17.21
64792;BME280;51226;47.504;19.074;2024-02-14T09:15:24;100998.19;;;29.95;14.74
64792;BME280;51226;47.504;19.074;2024-02-14T09:18:29;100997.28;;;31.93;13.79
64792;BME280;51226;47.504;19.074;2024-02-14T09:21:33;100999.09;;;33.74;12.53
64792;BME280;51226;47.504;19.074;2024-02-14T09:24:38;100991.06;;;35.78;10.85
64792;BME280;51226;47.504;19.074;2024-02-14T09:27:41;100991.28;;;36.66;10.47
64792;BME280;51226;47.504;19.074;2024-02-14T09:30:44;100986.84;;;37.64;9.74
64792;BME280;51226;47.504;19.074;2024-02-14T09:33:47;100988.28;;;38.90;9.26
64792;BME280;51226;47.504;19.074;2024-02-14T09:36:50;100988.69;;;38.58;8.85
64792;BME280;51226;47.504;19.074;2024-02-14T09:39:55;100978.78;;;39.08;8.78
64792;BME280;51226;47.504;19.074;2024-02-14T09:42:58;100974.81;;;40.11;8.52
64792;BME280;51226;47.504;19.074;2024-02-14T09:46:06;100972.00;;;36.99;9.48
64792;BME280;51226;47.504;19.074;2024-02-14T09:49:10;100978.38;;;38.76;8.95
64792;BME280;51226;47.504;19.074;2024-02-14T09:52:13;100971.22;;;40.10;8.31
64792;BME280;51226;47.504;19.074;2024-02-14T09:55:18;100976.53;;;41.28;7.56
64792;BME280;51226;47.504;19.074;2024-02-14T09:58:20;100975.78;;;41.81;7.26
64792;BME280;51226;47.504;19.074;2024-02-14T10:01:24;100977.03;;;42.63;6.92
64792;BME280;51226;47.504;19.074;2024-02-14T10:04:29;100973.28;;;41.89;6.72
64792;BME280;51226;47.504;19.074;2024-02-14T10:07:39;100968.31;;;41.28;7.21
64792;BME280;51226;47.504;19.074;2024-02-14T10:10:42;100960.19;;;40.12;7.66
64792;BME280;51226;47.504;19.074;2024-02-14T10:13:46;100961.94;;;38.25;8.27
64792;BME280;51226;47.504;19.074;2024-02-14T10:16:50;100961.88;;;35.50;9.98
64792;BME280;51226;47.504;19.074;2024-02-14T10:19:59;100960.44;;;32.35;11.77
64792;BME280;51226;47.504;19.074;2024-02-14T10:23:03;100957.72;;;29.98;12.89
64792;BME280;51226;47.504;19.074;2024-02-14T10:26:06;100955.41;;;27.99;14.54
64792;BME280;51226;47.504;19.074;2024-02-14T10:29:10;100955.09;;;26.93;15.20
64792;BME280;51226;47.504;19.074;2024-02-14T10:32:16;100954.06;;;26.03;16.23
64792;BME280;51226;47.504;19.074;2024-02-14T10:35:19;100955.78;;;25.48;16.33
64792;BME280;51226;47.504;19.074;2024-02-14T10:38:23;100951.00;;;25.05;17.03
64792;BME280;51226;47.504;19.074;2024-02-14T10:41:26;100945.97;;;24.79;17.40
64792;BME280;51226;47.504;19.074;2024-02-14T10:44:29;100949.28;;;24.13;17.87
64792;BME280;51226;47.504;19.074;2024-02-14T10:47:36;100951.31;;;23.78;18.32
64792;BME280;51226;47.504;19.074;2024-02-14T10:50:42;100941.06;;;23.04;19.18
64792;BME280;51226;47.504;19.074;2024-02-14T10:53:45;100938.50;;;22.89;19.24
64792;BME280;51226;47.504;19.074;2024-02-14T10:56:49;100936.75;;;22.75;19.60
64792;BME280;51226;47.504;19.074;2024-02-14T10:59:54;100932.31;;;22.82;19.88
64792;BME280;51226;47.504;19.074;2024-02-14T11:02:57;100932.31;;;22.84;19.80
64792;BME280;51226;47.504;19.074;2024-02-14T11:06:03;100927.78;;;23.01;19.81
64792;BME280;51226;47.504;19.074;2024-02-14T11:09:07;100927.00;;;22.74;19.86
64792;BME280;51226;47.504;19.074;2024-02-14T11:12:16;100935.06;;;22.31;20.76
64792;BME280;51226;47.504;19.074;2024-02-14T11:15:22;100924.41;;;22.50;20.47
64792;BME280;51226;47.504;19.074;2024-02-14T11:18:28;100927.97;;;22.41;21.04
64792;BME280;51226;47.504;19.074;2024-02-14T11:21:36;100923.53;;;22.23;21.32
64792;BME280;51226;47.504;19.074;2024-02-14T11:24:41;100917.34;;;22.26;21.15
64792;BME280;51226;47.504;19.074;2024-02-14T11:27:47;100919.13;;;22.22;21.09
64792;BME280;51226;47.504;19.074;2024-02-14T11:30:49;100919.13;;;22.14;21.08
64792;BME280;51226;47.504;19.074;2024-02-14T11:33:52;100912.03;;;22.12;21.27
64792;BME280;51226;47.504;19.074;2024-02-14T11:36:56;100906.75;;;21.87;21.76
64792;BME280;51226;47.504;19.074;2024-02-14T11:39:58;100912.06;;;21.84;22.02
64792;BME280;51226;47.504;19.074;2024-02-14T11:46:03;100912.06;;;21.62;22.25
64792;BME280;51226;47.504;19.074;2024-02-14T11:49:07;100902.31;;;21.52;21.82
64792;BME280;51226;47.504;19.074;2024-02-14T11:52:11;100894.28;;;21.31;21.86
64792;BME280;51226;47.504;19.074;2024-02-14T11:55:17;100900.44;;;21.17;22.17
64792;BME280;51226;47.504;19.074;2024-02-14T11:58:19;100896.94;;;21.37;21.98
64792;BME280;51226;47.504;19.074;2024-02-14T12:01:22;100891.63;;;21.38;21.60
64792;BME280;51226;47.504;19.074;2024-02-14T12:04:25;100890.75;;;21.27;21.72
64792;BME280;51226;47.504;19.074;2024-02-14T12:07:28;100888.09;;;21.41;21.77
64792;BME280;51226;47.504;19.074;2024-02-14T12:10:32;100896.09;;;21.55;21.65
64792;BME280;51226;47.504;19.074;2024-02-14T12:13:34;100892.56;;;21.56;21.75
64792;BME280;51226;47.504;19.074;2024-02-14T12:16:40;100891.63;;;21.40;21.74
64792;BME280;51226;47.504;19.074;2024-02-14T12:19:43;100886.22;;;21.01;22.17
64792;BME280;51226;47.504;19.074;2024-02-14T12:22:49;100884.25;;;20.54;22.52
64792;BME280;51226;47.504;19.074;2024-02-14T12:25:51;100889.31;;;20.14;22.83
64792;BME280;51226;47.504;19.074;2024-02-14T12:28:54;100884.87;;;20.14;22.73
64792;BME280;51226;47.504;19.074;2024-02-14T12:32:06;100887.41;;;19.91;22.74
64792;BME280;51226;47.504;19.074;2024-02-14T12:35:10;100875.84;;;19.86;22.58
64792;BME280;51226;47.504;19.074;2024-02-14T12:38:13;100878.28;;;19.61;22.53
64792;BME280;51226;47.504;19.074;2024-02-14T12:41:16;100879.78;;;19.33;23.36
64792;BME280;51226;47.504;19.074;2024-02-14T12:44:18;100883.94;;;19.13;23.70
64792;BME280;51226;47.504;19.074;2024-02-14T12:47:21;100878.47;;;18.91;24.03
64792;BME280;51226;47.504;19.074;2024-02-14T12:50:24;100879.84;;;18.64;24.49
64792;BME280;51226;47.504;19.074;2024-02-14T12:53:27;100870.66;;;18.35;24.57
64792;BME280;51226;47.504;19.074;2024-02-14T12:56:30;100879.88;;;18.03;25.10
64792;BME280;51226;47.504;19.074;2024-02-14T12:59:34;100867.91;;;17.73;25.54
64792;BME280;51226;47.504;19.074;2024-02-14T13:02:36;100869.97;;;17.39;26.24
64792;BME280;51226;47.504;19.074;2024-02-14T13:05:41;100869.69;;;17.22;26.51
64792;BME280;51226;47.504;19.074;2024-02-14T13:08:44;100868.69;;;17.16;26.78
64792;BME280;51226;47.504;19.074;2024-02-14T13:11:48;100868.41;;;17.02;27.11
64792;BME280;51226;47.504;19.074;2024-02-14T13:14:51;100861.25;;;16.95;27.36
64792;BME280;51226;47.504;19.074;2024-02-14T13:17:54;100862.81;;;16.87;28.16
64792;BME280;51226;47.504;19.074;2024-02-14T13:20:58;100858.78;;;16.61;28.92
64792;BME280;51226;47.504;19.074;2024-02-14T13:24:03;100861.09;;;16.46;29.37
64792;BME280;51226;47.504;19.074;2024-02-14T13:27:06;100866.94;;;16.33;30.06
64792;BME280;51226;47.504;19.074;2024-02-14T13:30:09;100865.31;;;16.00;30.50
64792;BME280;51226;47.504;19.074;2024-02-14T13:33:13;100871.28;;;15.92;30.62
64792;BME280;51226;47.504;19.074;2024-02-14T13:36:16;100870.16;;;15.83;31.06
64792;BME280;51226;47.504;19.074;2024-02-14T13:39:19;100871.47;;;15.65;31.50
64792;BME280;51226;47.504;19.074;2024-02-14T13:42:22;100877.19;;;15.49;31.95
64792;BME280;51226;47.504;19.074;2024-02-14T13:45:25;100873.34;;;15.36;32.50
64792;BME280;51226;47.504;19.074;2024-02-14T13:48:28;100872.25;;;15.28;32.94
64792;BME280;51226;47.504;19.074;2024-02-14T13:51:31;100866.44;;;15.08;33.16
64792;BME280;51226;47.504;19.074;2024-02-14T13:54:35;100866.31;;;15.03;33.59
64792;BME280;51226;47.504;19.074;2024-02-14T13:57:38;100877.19;;;14.84;33.89
64792;BME280;51226;47.504;19.074;2024-02-14T14:00:42;100876.34;;;14.86;34.29
64792;BME280;51226;47.504;19.074;2024-02-14T14:03:45;100872.47;;;14.73;34.50
64792;BME280;51226;47.504;19.074;2024-02-14T14:06:48;100871.31;;;14.62;34.89
64792;BME280;51226;47.504;19.074;2024-02-14T14:09:51;100880.06;;;14.62;35.08
64792;BME280;51226;47.504;19.074;2024-02-14T14:12:54;100879.44;;;14.42;35.34
64792;BME280;51226;47.504;19.074;2024-02-14T14:15:57;100878.03;;;14.54;35.68
64792;BME280;51226;47.504;19.074;2024-02-14T14:19:00;100874.31;;;14.47;35.85
64792;BME280;51226;47.504;19.074;2024-02-14T14:22:03;100881.91;;;14.38;35.68
64792;BME280;51226;47.504;19.074;2024-02-14T14:25:06;100885.56;;;14.14;36.10
64792;BME280;51226;47.504;19.074;2024-02-14T14:28:10;100882.88;;;14.13;36.42
64792;BME280;51226;47.504;19.074;2024-02-14T14:31:13;100877.31;;;14.02;36.77
64792;BME280;51226;47.504;19.074;2024-02-14T14:34:16;100876.91;;;13.89;36.91
64792;BME280;51226;47.504;19.074;2024-02-14T14:37:21;100872.62;;;13.93;36.75
64792;BME280;51226;47.504;19.074;2024-02-14T14:40:25;100878.09;;;13.72;37.29
64792;BME280;51226;47.504;19.074;2024-02-14T14:43:29;100876.06;;;13.63;37.63
64792;BME280;51226;47.504;19.074;2024-02-14T14:46:31;100873.72;;;13.45;37.67
64792;BME280;51226;47.504;19.074;2024-02-14T14:49:35;100879.66;;;13.41;37.91
64792;BME280;51226;47.504;19.074;2024-02-14T14:52:40;100874.34;;;13.38;37.93
64792;BME280;51226;47.504;19.074;2024-02-14T14:55:50;100877.72;;;13.36;38.17
64792;BME280;51226;47.504;19.074;2024-02-14T14:58:54;100885.66;;;13.37;38.58
64792;BME280;51226;47.504;19.074;2024-02-14T15:01:56;100887.06;;;13.29;38.71
64792;BME280;51226;47.504;19.074;2024-02-14T15:04:59;100887.34;;;13.35;38.71
64792;BME280;51226;47.504;19.074;2024-02-14T15:08:02;100885.19;;;13.25;38.61
64792;BME280;51226;47.504;19.074;2024-02-14T15:11:04;100887.34;;;13.35;38.44
64792;BME280;51226;47.504;19.074;2024-02-14T15:14:07;100887.13;;;13.30;38.60
64792;BME280;51226;47.504;19.074;2024-02-14T15:17:10;100885.09;;;13.22;38.70
64792;BME280;51226;47.504;19.074;2024-02-14T15:20:13;100889.34;;;13.20;39.18
64792;BME280;51226;47.504;19.074;2024-02-14T15:23:15;100892.78;;;13.17;39.39
64792;BME280;51226;47.504;19.074;2024-02-14T15:26:18;100895.06;;;13.08;39.60
64792;BME280;51226;47.504;19.074;2024-02-14T15:29:21;100898.47;;;13.05;39.64
64792;BME280;51226;47.504;19.074;2024-02-14T15:32:42;100907.03;;;13.01;39.81
64792;BME280;51226;47.504;19.074;2024-02-14T15:36:04;100904.69;;;13.09;40.00
64792;BME280;51226;47.504;19.074;2024-02-14T15:39:07;100909.50;;;12.96;40.04
64792;BME280;51226;47.504;19.074;2024-02-14T15:42:12;100906.72;;;12.92;40.54
64792;BME280;51226;47.504;19.074;2024-02-14T15:45:15;100911.59;;;12.83;40.47
64792;BME280;51226;47.504;19.074;2024-02-14T15:48:19;100910.16;;;12.91;40.57
64792;BME280;51226;47.504;19.074;2024-02-14T15:51:22;100908.22;;;12.85;40.93
64792;BME280;51226;47.504;19.074;2024-02-14T15:54:28;100906.53;;;12.63;41.30
64792;BME280;51226;47.504;19.074;2024-02-14T15:57:31;100913.12;;;12.53;41.68
64792;BME280;51226;47.504;19.074;2024-02-14T16:00:33;100907.56;;;12.46;42.48